createdAt,value
2018-12-06T00:04:11.378Z,5.70
2018-12-06T00:09:23.799Z,5.84
2018-12-06T00:14:35.253Z,5.93
2018-12-06T00:19:48.803Z,5.97
2018-12-06T00:25:00.898Z,6.21
2018-12-06T00:27:31.354Z,6.24
2018-12-06T00:32:59.833Z,6.25
2018-12-06T00:38:12.917Z,6.23
2018-12-06T00:43:27.345Z,6.33
2018-12-06T00:48:42.667Z,6.30
2018-12-06T00:53:53.934Z,6.44
2018-12-06T00:59:06.633Z,6.20
2018-12-06T01:04:18.923Z,6.15
2018-12-06T01:09:33.325Z,6.05
2018-12-06T01:14:45.879Z,5.97
2018-12-06T01:19:59.483Z,5.88
2018-12-06T01:25:17.657Z,5.86
2018-12-06T01:30:29.375Z,5.95
2018-12-06T01:35:40.678Z,5.95
2018-12-06T01:40:52.377Z,5.88
2018-12-06T01:46:05.747Z,5.81
2018-12-06T01:51:16.930Z,5.74
2018-12-06T01:56:30.024Z,5.80
2018-12-06T02:01:40.744Z,5.73
2018-12-06T02:06:54.039Z,5.66
2018-12-06T02:12:04.372Z,5.72
2018-12-06T02:17:17.823Z,5.75
2018-12-06T02:22:29.550Z,5.72
2018-12-06T02:27:42.736Z,5.63
2018-12-06T02:32:53.781Z,5.73
2018-12-06T02:38:06.690Z,5.71
2018-12-06T02:43:18.048Z,5.68
2018-12-06T02:48:30.747Z,5.67
2018-12-06T02:53:42.778Z,5.63
2018-12-06T02:58:55.668Z,5.74
2018-12-06T03:02:58.726Z,5.69
2018-12-06T03:08:12.658Z,5.75
2018-12-06T03:13:24.640Z,5.69
2018-12-06T03:18:37.710Z,5.66
2018-12-06T03:23:48.330Z,5.66
2018-12-06T03:29:02.588Z,5.60
2018-12-06T03:34:15.243Z,5.55
2018-12-06T03:39:28.032Z,5.47
2018-12-06T03:44:40.774Z,5.52
2018-12-06T03:49:54.054Z,5.49
2018-12-06T03:55:06.065Z,5.40
2018-12-06T04:00:18.599Z,5.33
2018-12-06T04:05:30.242Z,5.33
2018-12-06T04:10:41.680Z,5.43
2018-12-06T04:15:55.052Z,5.41
2018-12-06T04:21:07.150Z,5.46
2018-12-06T04:26:20.657Z,5.48
2018-12-06T04:31:31.835Z,5.44
2018-12-06T04:34:01.983Z,5.54
2018-12-06T04:39:14.822Z,5.43
2018-12-06T04:44:26.373Z,5.53
2018-12-06T04:49:39.412Z,5.61
2018-12-06T04:54:50.873Z,5.66
2018-12-06T05:00:03.704Z,5.68
2018-12-06T05:05:16.558Z,5.66
2018-12-06T05:10:29.676Z,5.73
2018-12-06T05:15:41.227Z,5.55
2018-12-06T05:20:52.767Z,5.42
2018-12-06T05:26:05.809Z,5.34
2018-12-06T05:31:15.773Z,5.38
2018-12-06T05:36:28.914Z,5.44
2018-12-06T05:41:40.811Z,5.53
2018-12-06T05:46:53.642Z,5.47
2018-12-06T05:52:05.685Z,5.67
2018-12-06T05:57:18.795Z,5.70
2018-12-06T06:02:29.798Z,5.64
2018-12-06T06:07:42.665Z,5.65
2018-12-06T06:12:54.394Z,5.72
2018-12-06T06:18:07.779Z,5.74
2018-12-06T06:23:20.475Z,5.70
2018-12-06T06:28:33.680Z,5.59
2018-12-06T06:33:45.254Z,5.47
2018-12-06T06:38:57.780Z,5.56
2018-12-06T06:44:08.381Z,5.51
2018-12-06T06:49:21.613Z,5.82
2018-12-06T06:54:32.964Z,5.81
2018-12-06T06:59:46.913Z,5.99
2018-12-06T07:04:59.055Z,5.94
2018-12-06T07:10:13.681Z,5.87
2018-12-06T07:15:26.957Z,5.96
2018-12-06T07:20:39.903Z,6.00
2018-12-06T07:25:52.776Z,6.01
2018-12-06T07:31:04.591Z,6.15
2018-12-06T07:36:17.769Z,6.05
2018-12-06T07:41:28.932Z,6.10
2018-12-06T07:46:42.838Z,6.13
2018-12-06T07:51:54.807Z,6.33
2018-12-06T07:57:07.616Z,6.42
2018-12-06T08:02:18.765Z,6.48
2018-12-06T08:07:31.760Z,6.67
2018-12-06T08:12:43.250Z,6.86
2018-12-06T08:17:55.911Z,6.95
2018-12-06T08:23:07.773Z,7.07
2018-12-06T08:28:21.071Z,7.23
2018-12-06T08:33:32.635Z,7.42
2018-12-06T08:38:46.389Z,7.45
2018-12-06T08:43:57.843Z,7.49
2018-12-06T08:49:10.671Z,7.48
2018-12-06T08:54:22.758Z,7.37
2018-12-06T08:56:53.328Z,7.42
2018-12-06T09:02:04.825Z,7.49
2018-12-06T09:07:17.812Z,7.65
2018-12-06T09:12:29.892Z,7.72
2018-12-06T09:17:42.723Z,7.76
2018-12-06T09:22:54.756Z,7.81
2018-12-06T09:28:07.675Z,7.85
2018-12-06T09:33:19.426Z,7.88
2018-12-06T09:38:32.375Z,8.07
2018-12-06T09:43:43.779Z,8.23
2018-12-06T09:48:56.770Z,8.44
2018-12-06T09:54:08.631Z,8.42
2018-12-06T09:56:38.614Z,8.41
2018-12-06T10:01:50.651Z,8.53
2018-12-06T10:04:20.902Z,8.66
2018-12-06T10:09:33.894Z,8.76
2018-12-06T10:14:46.398Z,8.74
2018-12-06T10:20:12.622Z,8.65
2018-12-06T10:25:24.498Z,8.61
2018-12-06T10:30:37.525Z,8.66
2018-12-06T10:35:49.331Z,8.67
2018-12-06T10:41:00.683Z,8.68
2018-12-06T10:46:13.694Z,8.72
2018-12-06T10:51:44.495Z,8.81
2018-12-06T10:56:57.406Z,8.77
2018-12-06T11:03:14.715Z,8.81
2018-12-06T11:08:27.815Z,8.86
2018-12-06T11:13:39.638Z,8.99
2018-12-06T11:19:07.657Z,9.13
2018-12-06T11:24:18.534Z,9.32
2018-12-06T11:29:31.697Z,9.40
2018-12-06T11:34:43.050Z,9.71
2018-12-06T11:39:55.737Z,9.75
2018-12-06T11:45:08.787Z,9.78
2018-12-06T11:50:22.036Z,9.85
2018-12-06T11:55:34.605Z,9.95
2018-12-06T12:00:46.757Z,9.95
2018-12-06T12:03:17.912Z,10.01
2018-12-06T12:05:49.378Z,9.97
2018-12-06T12:11:02.762Z,9.96
2018-12-06T12:16:16.735Z,9.92
2018-12-06T12:21:27.371Z,9.90
2018-12-06T12:23:57.582Z,9.97
2018-12-06T12:29:10.683Z,9.96
2018-12-06T12:34:22.679Z,9.94
2018-12-06T12:39:35.786Z,10.19
2018-12-06T12:44:49.451Z,10.11
2018-12-06T12:50:01.947Z,9.94
2018-12-06T12:55:13.671Z,10.03
2018-12-06T13:00:24.961Z,10.02
2018-12-06T13:05:35.802Z,9.96
2018-12-06T13:10:47.738Z,9.77
2018-12-06T13:15:59.319Z,9.77
2018-12-06T13:21:10.924Z,9.76
2018-12-06T13:26:24.631Z,9.73
2018-12-06T13:31:34.730Z,9.77
2018-12-06T13:36:48.517Z,9.72
2018-12-06T13:42:01.786Z,9.55
2018-12-06T13:44:31.959Z,9.61
2018-12-06T13:49:44.680Z,9.65
2018-12-06T13:54:55.719Z,9.64
2018-12-06T14:00:09.085Z,9.69
2018-12-06T14:05:20.769Z,9.69
2018-12-06T14:10:34.663Z,9.63
2018-12-06T14:15:48.030Z,9.65
2018-12-06T14:21:00.035Z,9.70
2018-12-06T14:26:13.624Z,9.60
2018-12-06T14:31:25.680Z,9.72
2018-12-06T14:33:56.443Z,9.69
2018-12-06T14:36:26.671Z,9.77
2018-12-06T14:41:38.493Z,9.84
2018-12-06T14:46:51.813Z,9.77
2018-12-06T14:52:03.364Z,9.76
2018-12-06T14:57:16.720Z,9.81
2018-12-06T15:02:28.038Z,9.83
2018-12-06T15:07:41.341Z,9.76
2018-12-06T15:12:53.696Z,9.74
2018-12-06T15:18:05.943Z,9.60
2018-12-06T15:23:17.663Z,9.58
2018-12-06T15:28:30.786Z,9.49
2018-12-06T15:33:42.765Z,9.50
2018-12-06T15:38:55.775Z,9.37
2018-12-06T15:44:06.884Z,9.35
2018-12-06T15:49:19.778Z,9.32
2018-12-06T15:54:31.720Z,9.23
2018-12-06T15:59:44.630Z,9.17
2018-12-06T16:04:56.623Z,9.14
2018-12-06T16:10:12.436Z,9.11
2018-12-06T16:15:24.582Z,9.03
2018-12-06T16:20:38.036Z,8.99
2018-12-06T16:25:55.683Z,9.04
2018-12-06T16:31:18.379Z,9.10
2018-12-06T16:36:35.887Z,9.14
2018-12-06T16:41:52.025Z,9.06
2018-12-06T16:47:19.218Z,8.92
2018-12-06T16:51:20.780Z,8.80
2018-12-06T16:56:33.731Z,8.77
2018-12-06T17:01:45.621Z,8.63
2018-12-06T17:06:58.665Z,8.59
2018-12-06T17:12:10.708Z,8.69
2018-12-06T17:17:39.026Z,8.65
2018-12-06T17:22:54.683Z,8.83
2018-12-06T17:25:24.579Z,8.80
2018-12-06T17:30:38.473Z,8.80
2018-12-06T17:35:55.380Z,8.95
2018-12-06T17:41:07.163Z,8.93
2018-12-06T17:46:20.037Z,8.92
2018-12-06T17:51:31.936Z,8.83
2018-12-06T17:56:59.274Z,8.77
2018-12-06T18:02:11.244Z,8.84
2018-12-06T18:07:23.046Z,8.78
2018-12-06T18:12:35.422Z,8.76
2018-12-06T18:17:49.487Z,8.90
2018-12-06T18:25:42.904Z,8.88
2018-12-06T18:30:54.226Z,8.91
2018-12-06T18:36:06.779Z,8.94
2018-12-06T18:41:18.044Z,9.00
2018-12-06T18:46:32.245Z,9.07
2018-12-06T18:51:44.655Z,9.24
2018-12-06T18:56:57.705Z,9.20
2018-12-06T19:02:09.372Z,9.26
2018-12-06T19:07:22.711Z,9.21
2018-12-06T19:12:33.720Z,9.27
2018-12-06T19:17:46.695Z,9.37
2018-12-06T19:22:58.681Z,9.37
2018-12-06T19:28:10.336Z,9.36
2018-12-06T19:33:21.736Z,9.44
2018-12-06T19:38:34.001Z,9.51
2018-12-06T19:43:45.767Z,9.50
2018-12-06T19:48:58.758Z,9.56
2018-12-06T19:54:11.771Z,9.63
2018-12-06T19:59:24.391Z,9.64
2018-12-06T20:04:35.669Z,9.70
2018-12-06T20:09:48.823Z,9.77
2018-12-06T20:14:59.748Z,9.81
2018-12-06T20:20:13.430Z,9.82
2018-12-06T20:25:26.563Z,9.91
2018-12-06T20:30:39.827Z,9.83
2018-12-06T20:35:53.565Z,9.93
2018-12-06T20:41:06.039Z,9.92
2018-12-06T20:46:21.086Z,9.99
2018-12-06T20:51:33.461Z,10.02
2018-12-06T20:56:47.049Z,10.05
2018-12-06T21:01:58.700Z,10.06
2018-12-06T21:07:11.947Z,10.13
2018-12-06T21:12:24.038Z,10.14
2018-12-06T21:17:37.663Z,10.16
2018-12-06T21:22:49.775Z,10.23
2018-12-06T21:28:04.330Z,10.24
2018-12-06T21:42:21.902Z,10.36
2018-12-06T21:47:34.920Z,10.46
2018-12-06T21:52:47.787Z,10.51
2018-12-06T21:55:17.700Z,10.45
2018-12-06T22:00:29.375Z,10.54
2018-12-06T22:05:41.246Z,10.50
2018-12-06T22:10:51.994Z,10.52
2018-12-06T22:16:05.243Z,10.52
2018-12-06T22:21:17.268Z,10.43
2018-12-06T22:26:29.672Z,10.48
2018-12-06T22:31:41.738Z,10.57
2018-12-06T22:36:54.463Z,10.49
2018-12-06T22:42:05.689Z,10.57
2018-12-06T22:47:20.520Z,10.51
2018-12-06T22:52:32.385Z,10.68
2018-12-06T22:57:45.666Z,10.69
2018-12-06T23:03:03.674Z,10.76
2018-12-06T23:08:17.370Z,10.75
2018-12-06T23:13:30.394Z,10.80
2018-12-06T23:18:43.637Z,10.76
2018-12-06T23:23:54.757Z,10.79
2018-12-06T23:29:07.806Z,10.78
2018-12-06T23:34:19.644Z,10.81
2018-12-06T23:39:32.679Z,10.86
2018-12-06T23:44:44.687Z,10.90
2018-12-06T23:49:57.517Z,10.87
2018-12-06T23:55:09.655Z,10.87
